Aktualne dane pomiarowe

Uwaga, wersja testowa! Automatyczne pobieranie danych za pomocą narzędzi lub skryptów to umożliwiających jest zabronione.

Dane meteo z obszaru Polski uzyskane na podstawie depesz SYNOP pobieranych co godzinę z NWS. Najedź myszką na symbol przedstawiony w tabeli, aby uzyskać informacje co do jego znaczenia. Prosimy pamiętać, że to testowa wersja strony, która jeszcze nie jest ukończona. Stworzono również jest krótki FAQ dotyczący korzystania z tej podstrony Anomalie temperatury w chwili obecnej odniesione są do okresu referencyjnego 1951-2016. Okres ten będzie później zmieniony na 1981-2010. Kliknij ikonę aby pobrać plik CSV. Kliknij ikonę aby wygenerować mapę synoptyczną dla danego terminu.

Wybierz Datę:    

        

Częstochowa (12550)

Dane terminowe dla wybranej stacji. Kliknij datę, aby otrzymać dane z tego terminu dla wszystkich stacji.

TemperaturaZachmurzenieWiatrCiśnienieOpadyPogoda
 Data t td wb tx tn tg rh  Nt Nl Cl Cm Ch ws wd g1 g2 wx mslp ppp ch 24h 12h t ww ww w1 w2  
2019-08-08 23:00:00 17.6 12.9 14.5--- 7425.0--1wx--11013.4 978.8 0.5---------
2019-08-08 22:00:00 18.5 13.4 15.2--- 7226.0--1wx--11013.3 978.8 0.6---------
2019-08-08 21:00:00 18.9 13.3 15.3--- 7027.0--1wx-611012.8 978.4 0.5---------
2019-08-08 20:00:00 19.4 13.3 15.5--- 6827.0--1wx---1012.6 978.3 0.7---------
2019-08-08 19:00:00 20.4 12.1 15.2--- 5945.0--1wx--11012.4 978.2 0.4---------
2019-08-08 18:00:00 21.7 12.0 15.7 25.8 17.2- 5450.0--1wx-711012.0 977.9 0.2- 0.012------
2019-08-08 17:00:00 23.3 11.4 16.1--- 4745.0--1wx--11011.5 977.6 -0.2---------
2019-08-08 16:00:00 23.2 10.6 15.7--- 4540.0--1wx---1011.7 977.8 -0.2---------
2019-08-08 15:00:00 24.8 9.1 15.7--- 3740.0--2wx-721011.4 977.7 -0.4---------
2019-08-08 14:00:00 25.0 8.9 15.7--- 3635.0--2wx--21011.5 977.8 -0.1---------
2019-08-08 13:00:00 25.5 10.5 16.6--- 3928.0--2wx-721011.6 978.0 0.4---------
2019-08-08 12:00:00 24.9 10.7 16.5--- 4135.0--3wx-831011.8 978.1 0.7- 0.06------
2019-08-08 11:00:00 23.5 11.2 16.1--- 4630.0--4wx--41011.7 977.9 0.8---------
2019-08-08 10:00:00 23.0 12.9 16.7--- 5335.0--4wx-841011.5 977.6 0.9---------
2019-08-08 09:00:00 22.0 13.9 16.8--- 6029.0--2wx--21011.4 977.4 1.3---------
2019-08-08 08:00:00 20.6 16.0 17.5--- 7522.0--2wx--21011.3 977.1 1.6---------
2019-08-08 07:00:00 18.8 16.0 16.8--- 8413.0--2wx--21011.1 976.7 2.0---------
2019-08-08 06:00:00 17.2 16.1 16.4 23.7 16.4 16 937.0--2wx-921010.6 976.1 2.0 29.6 16.012wx---- 4.7
2019-08-08 05:00:00 16.6 15.6 15.9--- 949.0--2wx---1010.1 975.5 1.7---------
2019-08-08 04:00:00 16.5 15.7 15.9--- 9510.0--2wx---1009.3 974.7 1.1---wx-----
2019-08-08 03:00:00 16.7 15.9 16.1--- 959.0--2wx-921008.6 974.1 1.3---wx-----
2019-08-08 02:00:00 16.8 16.0 16.2--- 9514.0--2wx--21008.3 973.8 0.5---wx-----
2019-08-08 01:00:00 17.3 16.2 16.5--- 938.0--3wx9931008.0 973.6 0.4---wx-----
2019-08-08 00:00:00 18.0 17.4 17.6--- 966.0--1wx-911007.1 972.8 -0.4- 12.06wx-----
2019-08-07 23:00:00 18.2 17.4 17.6--- 952.8--1wx--11007.6 973.3 -0.5---wx-----
2019-08-07 22:00:00 18.5 17.3 17.6--- 939.0--1wx--11007.5 973.2 1.1---wx-----
2019-08-07 21:00:00 18.8 17.6 17.9--- 9320.0--1wx-911007.4 973.2 0.8---wx-----
2019-08-07 20:00:00 19.8 17.4 18.1--- 864.0--3wx9--1007.9 973.8 1.3---wx-----
2019-08-07 19:00:00 22.8 16.6 18.6--- 6835.0--1wx---1005.8 972.1 -1.2---------
2019-08-07 18:00:00 23.7 16.2 18.7 26.2 17.6- 6345.0--0---01006.0 972.4 -0.7- 14.012------
2019-08-07 17:00:00 25.2 15.5 18.9--- 5550.0--1wx--11006.0 972.5 -1.5---------
2019-08-07 16:00:00 25.5 16.6 19.6--- 5840.0--1wx--11006.8 973.3 -1.2---------
2019-08-07 15:00:00 25.6 17.0 19.9--- 5935.0--1wx--11006.5 973.1 -1.6---------
2019-08-07 14:00:00 25.1 17.3 19.9--- 6230.0--1wx---1007.5 974.0 -1.4---------
2019-08-07 13:00:00 23.2 17.6 19.4--- 7130.0--1wx--11008.3 974.5 -1.4---------
2019-08-07 12:00:00 21.0 17.8 18.7--- 8225.0--1wx-5211008.7 974.7 -1.2- 14.06------
2019-08-07 11:00:00 18.3 17.0 17.4--- 9225.0--1wx--11009.8 975.4 -0.2---wx-----
2019-08-07 10:00:00 17.8 16.5 16.9--- 926.0--1wx-5211010.3 975.9 0.7---wx-----
2019-08-07 09:00:00 18.7 17.0 17.5--- 9016.0--1wx---1010.2 975.9 0.6---wx-----
2019-08-07 08:00:00 18.9 16.7 17.3--- 873.0--1wx-711009.9 975.6 0.1---wx-----
2019-08-07 07:00:00 20.1 17.3 18.1--- 8426.0--1wx--11009.3 975.2 -0.1---------
2019-08-07 06:00:00 19.0 16.6 17.3 23.2 16.7 16 8620.0--1wx--11009.6 975.3 0.0 1.8 2.012----- 9.6
2019-08-07 05:00:00 17.6 15.9 16.4--- 9019.0--1wx--11010.0 975.5 0.5---------
2019-08-07 04:00:00 17.1 15.6 16.0--- 9120.0--2wx---1009.8 975.3 0.0---------
2019-08-07 03:00:00 16.8 15.5 15.9--- 9216.0--2wx--21009.8 975.3 -0.2---------
2019-08-07 02:00:00 16.9 15.2 15.7--- 9022.0--2wx--21009.5 975.0 -0.8---------
2019-08-07 01:00:00 17.3 15.6 16.1--- 9035.0--2wx--21009.8 975.3 -0.9---------
2019-08-07 00:00:00 17.7 16.0 16.5--- 9015.0--2wx-1021009.9 975.5 0.0- 2.06------
1.7 ms

 

Print Friendly, PDF & Email